createdAt,value
2022-10-09T00:00:53.004Z,99
2022-10-09T00:00:59.191Z,99
2022-10-09T00:01:30.370Z,99
2022-10-09T00:02:07.672Z,99
2022-10-09T00:02:32.809Z,99
2022-10-09T00:03:03.279Z,99
2022-10-09T00:03:52.630Z,99
2022-10-09T00:04:05.150Z,99
2022-10-09T00:04:36.419Z,99
2022-10-09T00:05:13.117Z,99
2022-10-09T00:05:38.952Z,99
2022-10-09T00:06:09.061Z,99
2022-10-09T00:06:42.705Z,99
2022-10-09T00:07:12.835Z,99
2022-10-09T00:07:43.185Z,99
2022-10-09T00:08:25.725Z,99
2022-10-09T00:11:59.088Z,99
2022-10-09T00:12:44.242Z,99
2022-10-09T00:12:56.168Z,99
2022-10-09T00:13:27.228Z,99
2022-10-09T00:13:56.717Z,99
2022-10-09T00:14:38.768Z,99
2022-10-09T00:14:56.791Z,99
2022-10-09T00:15:35.347Z,99
2022-10-09T00:16:07.635Z,99
2022-10-09T00:16:37.272Z,99
2022-10-09T00:17:08.465Z,99
2022-10-09T00:17:33.454Z,99
2022-10-09T00:18:04.085Z,99
2022-10-09T00:18:34.818Z,99
2022-10-09T00:19:05.096Z,99
2022-10-09T00:19:35.672Z,99
2022-10-09T00:20:08.460Z,99
2022-10-09T00:20:39.171Z,99
2022-10-09T00:21:37.852Z,99
2022-10-09T00:22:12.701Z,99
2022-10-09T00:22:43.821Z,99
2022-10-09T00:23:13.909Z,99
2022-10-09T00:23:44.495Z,99
2022-10-09T00:24:17.855Z,99
2022-10-09T00:24:46.223Z,99
2022-10-09T00:25:17.449Z,99
2022-10-09T00:25:47.534Z,99
2022-10-09T00:26:19.215Z,99
2022-10-09T00:26:49.202Z,99
2022-10-09T00:27:23.273Z,99
2022-10-09T00:27:52.954Z,99
2022-10-09T00:28:25.280Z,99
2022-10-09T00:29:00.522Z,99
2022-10-09T00:29:25.688Z,99
2022-10-09T00:29:57.508Z,99
2022-10-09T00:30:34.199Z,99
2022-10-09T00:30:58.652Z,99
2022-10-09T00:31:30.312Z,99
2022-10-09T00:31:59.700Z,99
2022-10-09T00:32:32.821Z,99
2022-10-09T00:33:03.307Z,99
2022-10-09T00:33:34.445Z,99
2022-10-09T00:34:29.872Z,99
2022-10-09T00:34:35.995Z,99
2022-10-09T00:35:08.905Z,99
2022-10-09T00:35:37.499Z,99
2022-10-09T00:36:08.553Z,99
2022-10-09T00:36:38.634Z,99
2022-10-09T00:37:09.386Z,99
2022-10-09T00:37:42.563Z,99
2022-10-09T00:38:14.332Z,99
2022-10-09T00:38:45.252Z,99
2022-10-09T00:39:21.858Z,99
2022-10-09T00:39:47.492Z,99
2022-10-09T00:40:22.405Z,99
2022-10-09T00:40:49.626Z,99
2022-10-09T00:41:54.889Z,99
2022-10-09T00:42:24.355Z,99
2022-10-09T00:42:54.829Z,99
2022-10-09T00:43:24.098Z,99
2022-10-09T00:43:54.708Z,99
2022-10-09T00:44:25.213Z,99
2022-10-09T00:44:55.311Z,99
2022-10-09T00:45:26.280Z,99
2022-10-09T00:46:02.432Z,99
2022-10-09T00:46:28.458Z,99
2022-10-09T00:47:01.755Z,99
2022-10-09T00:47:32.461Z,99
2022-10-09T00:48:02.534Z,99
2022-10-09T00:48:34.406Z,99
2022-10-09T00:49:05.209Z,99
2022-10-09T00:49:36.192Z,99
2022-10-09T00:50:06.284Z,99
2022-10-09T00:50:35.809Z,99
2022-10-09T00:51:10.799Z,99
2022-10-09T00:51:46.222Z,99
2022-10-09T00:52:09.910Z,99
2022-10-09T00:52:43.617Z,99
2022-10-09T00:53:11.121Z,99
2022-10-09T00:53:45.113Z,99
2022-10-09T00:54:15.518Z,99
2022-10-09T00:54:45.741Z,99
2022-10-09T00:55:17.522Z,99
2022-10-09T00:56:17.547Z,99
2022-10-09T00:56:48.474Z,99
2022-10-09T00:57:19.068Z,99
2022-10-09T00:57:51.025Z,99
2022-10-09T00:58:21.296Z,99
2022-10-09T00:58:54.919Z,99
2022-10-09T00:59:23.457Z,99
2022-10-09T00:59:55.470Z,99
2022-10-09T01:01:29.718Z,99
2022-10-09T01:03:09.795Z,99
2022-10-09T01:03:27.421Z,99
2022-10-09T01:04:41.165Z,99
2022-10-09T01:05:49.040Z,99
2022-10-09T01:06:00.606Z,99
2022-10-09T01:06:38.232Z,99
2022-10-09T01:07:05.299Z,99
2022-10-09T01:07:29.857Z,99
2022-10-09T01:08:06.598Z,99
2022-10-09T01:08:33.981Z,99
2022-10-09T01:09:03.444Z,99
2022-10-09T01:09:49.428Z,99
2022-10-09T01:10:15.568Z,99
2022-10-09T01:10:48.904Z,99
2022-10-09T01:11:09.022Z,99
2022-10-09T01:11:39.619Z,99
2022-10-09T01:12:29.655Z,99
2022-10-09T01:12:45.323Z,99
2022-10-09T01:13:13.078Z,99
2022-10-09T01:13:42.336Z,99
2022-10-09T01:14:15.218Z,99
2022-10-09T01:14:44.611Z,99
2022-10-09T01:16:52.642Z,99
2022-10-09T01:17:20.700Z,99
2022-10-09T01:17:50.059Z,99
2022-10-09T01:18:22.465Z,99
2022-10-09T01:18:51.701Z,99
2022-10-09T01:19:53.888Z,99
2022-10-09T01:20:25.451Z,99
2022-10-09T01:20:58.018Z,99
2022-10-09T01:21:30.088Z,99
2022-10-09T01:21:59.866Z,99
2022-10-09T01:22:29.193Z,99
2022-10-09T01:23:00.030Z,99
2022-10-09T01:23:31.238Z,99
2022-10-09T01:24:01.816Z,99
2022-10-09T01:24:33.360Z,99
2022-10-09T01:25:05.180Z,99
2022-10-09T01:25:35.407Z,99
2022-10-09T01:26:07.552Z,99
2022-10-09T01:26:39.741Z,99
2022-10-09T01:27:10.196Z,99
2022-10-09T01:27:39.383Z,99
2022-10-09T01:28:09.809Z,99
2022-10-09T01:28:40.909Z,99
2022-10-09T01:29:11.754Z,99
2022-10-09T01:29:43.264Z,99
2022-10-09T01:30:15.142Z,99
2022-10-09T01:30:45.203Z,99
2022-10-09T01:31:17.386Z,99
2022-10-09T01:31:48.823Z,99
2022-10-09T01:32:20.242Z,99
2022-10-09T01:32:50.486Z,99
2022-10-09T01:33:22.770Z,99
2022-10-09T01:33:51.112Z,99
2022-10-09T01:34:32.732Z,99
2022-10-09T01:34:54.378Z,99
2022-10-09T01:35:24.909Z,99
2022-10-09T01:36:12.150Z,99
2022-10-09T01:36:26.165Z,99
2022-10-09T01:36:58.974Z,99
2022-10-09T01:37:29.317Z,99
2022-10-09T01:37:59.477Z,99
2022-10-09T01:38:30.048Z,99
2022-10-09T01:39:01.587Z,99
2022-10-09T01:39:45.504Z,99
2022-10-09T01:40:03.818Z,99
2022-10-09T01:40:34.311Z,99
2022-10-09T01:41:04.688Z,99
2022-10-09T01:41:35.736Z,99
2022-10-09T01:42:09.276Z,99
2022-10-09T01:42:40.207Z,99
2022-10-09T01:43:10.092Z,99
2022-10-09T01:43:41.204Z,99
2022-10-09T01:44:10.934Z,99
2022-10-09T01:44:41.954Z,99
2022-10-09T01:45:14.605Z,99
2022-10-09T01:45:44.187Z,99
2022-10-09T01:46:15.412Z,99
2022-10-09T01:46:46.692Z,99
2022-10-09T01:47:21.739Z,99
2022-10-09T01:47:51.493Z,99
2022-10-09T01:48:21.479Z,99
2022-10-09T01:48:50.241Z,99
2022-10-09T01:49:21.257Z,99
2022-10-09T01:49:51.984Z,99
2022-10-09T01:50:22.961Z,99
2022-10-09T01:50:54.207Z,99
2022-10-09T01:51:25.359Z,99
2022-10-09T01:51:55.987Z,99
2022-10-09T01:52:28.985Z,99
2022-10-09T01:52:59.904Z,99
2022-10-09T01:53:29.939Z,99
2022-10-09T01:54:00.867Z,99
2022-10-09T01:54:31.154Z,99
2022-10-09T01:55:02.348Z,99
2022-10-09T01:55:32.921Z,99
2022-10-09T01:56:04.275Z,99
2022-10-09T01:56:39.052Z,99
2022-10-09T01:57:08.428Z,99
2022-10-09T01:57:38.305Z,99
2022-10-09T01:58:10.273Z,99
2022-10-09T01:58:40.290Z,99
2022-10-09T01:59:15.471Z,99
2022-10-09T01:59:41.262Z,99
2022-10-09T02:00:30.700Z,99
2022-10-09T02:00:42.751Z,99
2022-10-09T02:01:30.131Z,99
2022-10-09T02:01:45.011Z,99
2022-10-09T02:02:18.928Z,99
2022-10-09T02:02:55.387Z,99
2022-10-09T02:03:19.047Z,99
2022-10-09T02:03:49.899Z,99
2022-10-09T02:04:23.704Z,99
2022-10-09T02:04:51.562Z,99
2022-10-09T02:05:23.714Z,99
2022-10-09T02:05:52.737Z,99
2022-10-09T02:06:23.580Z,99
2022-10-09T02:06:54.553Z,99
2022-10-09T02:07:25.854Z,99
2022-10-09T02:07:57.669Z,99
2022-10-09T02:08:29.478Z,99
2022-10-09T02:09:00.026Z,99
2022-10-09T02:09:30.174Z,99
2022-10-09T02:10:01.352Z,99
2022-10-09T02:10:32.555Z,99
2022-10-09T02:11:03.514Z,99
2022-10-09T02:11:33.630Z,99
2022-10-09T02:12:05.287Z,99
2022-10-09T02:12:35.660Z,99
2022-10-09T02:13:08.897Z,99
2022-10-09T02:13:38.161Z,99
2022-10-09T02:14:10.118Z,99
2022-10-09T02:14:41.224Z,99
2022-10-09T02:15:12.646Z,99
2022-10-09T02:15:42.642Z,99
2022-10-09T02:16:13.899Z,99
2022-10-09T02:16:43.882Z,99
2022-10-09T02:17:15.103Z,99
2022-10-09T02:17:45.990Z,99
2022-10-09T02:18:17.718Z,99
2022-10-09T02:18:49.893Z,99
2022-10-09T02:19:20.572Z,99
2022-10-09T02:19:50.530Z,99
2022-10-09T02:20:21.563Z,99
2022-10-09T02:20:51.968Z,99
2022-10-09T02:21:22.965Z,99
2022-10-09T02:21:54.737Z,99
2022-10-09T02:22:25.231Z,99
2022-10-09T02:22:55.873Z,99
2022-10-09T02:23:28.829Z,99
2022-10-09T02:23:59.216Z,99
2022-10-09T02:24:30.669Z,99
2022-10-09T02:25:00.992Z,99
2022-10-09T02:25:30.985Z,99
2022-10-09T02:26:02.447Z,99
2022-10-09T02:26:33.278Z,99
2022-10-09T02:27:04.617Z,99
2022-10-09T02:27:35.042Z,99
2022-10-09T02:28:06.552Z,99
2022-10-09T02:28:40.454Z,99
2022-10-09T02:29:09.940Z,99
2022-10-09T02:29:40.951Z,99
2022-10-09T02:30:13.561Z,99
2022-10-09T02:30:42.027Z,99
2022-10-09T02:31:12.560Z,99
2022-10-09T02:31:43.231Z,99
2022-10-09T02:32:14.621Z,99
2022-10-09T02:32:45.375Z,99
2022-10-09T02:33:17.152Z,99
2022-10-09T02:33:47.497Z,99
2022-10-09T02:34:19.945Z,99
2022-10-09T02:34:51.424Z,99
2022-10-09T02:35:21.235Z,99
2022-10-09T02:35:50.971Z,99
2022-10-09T02:36:41.645Z,99
2022-10-09T02:36:52.669Z,99
2022-10-09T02:37:24.680Z,99
2022-10-09T02:37:54.994Z,99
2022-10-09T02:38:43.115Z,99
2022-10-09T02:38:57.432Z,99
2022-10-09T02:39:29.051Z,99
2022-10-09T02:40:01.497Z,99
2022-10-09T02:40:30.879Z,99
2022-10-09T02:41:01.246Z,99
2022-10-09T02:41:32.072Z,99
2022-10-09T02:42:03.036Z,99
2022-10-09T02:42:33.966Z,99
2022-10-09T02:43:05.366Z,99
2022-10-09T02:43:35.914Z,99
2022-10-09T02:44:07.878Z,99
2022-10-09T02:44:40.137Z,99
2022-10-09T02:45:12.328Z,99
2022-10-09T02:45:41.250Z,99
2022-10-09T02:46:12.325Z,99
2022-10-09T02:46:41.863Z,99
2022-10-09T02:47:14.333Z,99
2022-10-09T02:47:43.990Z,99
2022-10-09T02:48:15.868Z,99
2022-10-09T02:48:45.824Z,99
2022-10-09T02:49:49.870Z,99
2022-10-09T02:50:21.480Z,99
2022-10-09T02:50:51.466Z,99
2022-10-09T02:51:21.307Z,99
2022-10-09T02:51:52.680Z,99
2022-10-09T02:52:22.998Z,99
2022-10-09T02:52:54.026Z,99
2022-10-09T02:53:26.105Z,99
2022-10-09T02:53:56.501Z,99
2022-10-09T02:54:27.484Z,99
2022-10-09T02:54:59.611Z,99
2022-10-09T02:55:30.690Z,99
2022-10-09T02:56:01.055Z,99
2022-10-09T02:56:34.513Z,99
2022-10-09T02:57:02.251Z,99
2022-10-09T02:57:33.135Z,99
2022-10-09T02:58:04.396Z,99
2022-10-09T02:58:35.202Z,99
2022-10-09T02:59:06.615Z,99
2022-10-09T02:59:37.409Z,99
2022-10-09T03:00:10.165Z,99
2022-10-09T03:00:40.688Z,99
2022-10-09T03:01:11.275Z,99
2022-10-09T03:01:41.879Z,99
2022-10-09T03:02:12.184Z,99
2022-10-09T03:02:43.164Z,99
2022-10-09T03:03:13.907Z,99
2022-10-09T03:03:45.058Z,99
2022-10-09T03:04:16.076Z,99
2022-10-09T03:04:47.372Z,99
2022-10-09T03:05:19.938Z,99
2022-10-09T03:05:50.668Z,99
2022-10-09T03:06:21.471Z,99
2022-10-09T03:06:51.590Z,99
2022-10-09T03:07:23.987Z,99
2022-10-09T03:07:54.048Z,99
2022-10-09T03:08:24.403Z,99
2022-10-09T03:08:55.938Z,99
2022-10-09T03:09:29.161Z,99
2022-10-09T03:10:15.197Z,99
2022-10-09T03:10:28.639Z,99
2022-10-09T03:11:01.470Z,99
2022-10-09T03:11:31.821Z,99
2022-10-09T03:12:02.034Z,99
2022-10-09T03:12:32.187Z,99
2022-10-09T03:13:03.321Z,99
2022-10-09T03:13:34.264Z,99
2022-10-09T03:14:05.103Z,99
2022-10-09T03:14:36.102Z,99
2022-10-09T03:15:07.662Z,99
2022-10-09T03:15:42.265Z,99
2022-10-09T03:16:12.783Z,99
2022-10-09T03:16:40.924Z,99
2022-10-09T03:17:11.372Z,99
2022-10-09T03:18:17.631Z,99
2022-10-09T03:18:21.528Z,99
2022-10-09T03:18:44.146Z,99
2022-10-09T03:19:15.423Z,99
2022-10-09T03:19:45.959Z,99
2022-10-09T03:20:19.054Z,99
2022-10-09T03:20:49.194Z,99
2022-10-09T03:21:20.880Z,99
2022-10-09T03:21:51.209Z,99
2022-10-09T03:22:52.163Z,99
2022-10-09T03:23:23.308Z,99
2022-10-09T03:23:54.394Z,99
2022-10-09T03:24:25.155Z,99
2022-10-09T03:24:56.078Z,99
2022-10-09T03:25:28.008Z,99
2022-10-09T03:26:00.614Z,99
2022-10-09T03:26:30.743Z,99
2022-10-09T03:27:02.011Z,99
2022-10-09T03:27:31.686Z,99
2022-10-09T03:28:03.065Z,99
2022-10-09T03:28:33.595Z,99
2022-10-09T03:29:06.375Z,99
2022-10-09T03:29:37.949Z,99
2022-10-09T03:30:07.413Z,99
2022-10-09T03:30:37.676Z,99
2022-10-09T03:31:08.640Z,99
2022-10-09T03:31:52.349Z,99
2022-10-09T03:32:12.465Z,99
2022-10-09T03:32:42.894Z,99
2022-10-09T03:33:11.959Z,99
2022-10-09T03:33:43.638Z,99
2022-10-09T03:34:14.285Z,99
2022-10-09T03:34:44.958Z,99
2022-10-09T03:35:16.129Z,99
2022-10-09T03:35:47.773Z,99
2022-10-09T03:36:18.553Z,99
2022-10-09T03:36:49.855Z,99
2022-10-09T03:37:21.999Z,99
2022-10-09T03:37:51.881Z,99
2022-10-09T03:38:22.861Z,99
2022-10-09T03:38:53.545Z,99
2022-10-09T03:39:25.057Z,99
2022-10-09T03:39:55.307Z,99
2022-10-09T03:40:27.373Z,99
2022-10-09T03:40:57.382Z,99
2022-10-09T03:41:31.739Z,99
2022-10-09T03:41:59.419Z,99
2022-10-09T03:42:48.023Z,99
2022-10-09T03:43:02.460Z,99
2022-10-09T03:43:37.842Z,99
2022-10-09T03:44:03.521Z,99
2022-10-09T03:44:34.321Z,99
2022-10-09T03:45:06.205Z,99
2022-10-09T03:45:36.830Z,99
2022-10-09T03:46:08.473Z,99
2022-10-09T03:46:38.790Z,99
2022-10-09T03:47:11.223Z,99
2022-10-09T03:47:42.249Z,99
2022-10-09T03:48:12.460Z,99
2022-10-09T03:48:43.148Z,99
2022-10-09T03:49:13.477Z,99
2022-10-09T03:49:44.311Z,99
2022-10-09T03:50:15.998Z,99
2022-10-09T03:50:46.229Z,99
2022-10-09T03:51:17.877Z,99
2022-10-09T03:51:48.700Z,99
2022-10-09T03:52:21.278Z,99
2022-10-09T03:52:52.270Z,99
2022-10-09T03:53:23.229Z,99
2022-10-09T03:53:52.833Z,99
2022-10-09T03:54:23.755Z,99
2022-10-09T03:54:54.571Z,99
2022-10-09T03:55:25.499Z,99
2022-10-09T03:55:56.382Z,99
2022-10-09T03:56:27.765Z,99
2022-10-09T03:56:58.629Z,99
2022-10-09T03:57:30.348Z,99
2022-10-09T03:58:00.800Z,99
2022-10-09T03:58:33.136Z,99
2022-10-09T03:59:03.155Z,99
2022-10-09T03:59:33.448Z,99
2022-10-09T04:00:42.145Z,99
2022-10-09T04:01:06.602Z,99
2022-10-09T04:01:37.341Z,99
2022-10-09T04:02:09.013Z,99
2022-10-09T04:02:39.329Z,99
2022-10-09T04:03:15.233Z,99
2022-10-09T04:03:41.550Z,99
2022-10-09T04:04:12.077Z,99
2022-10-09T04:04:43.433Z,99
2022-10-09T04:05:14.350Z,99
2022-10-09T04:05:45.368Z,99
2022-10-09T04:06:17.487Z,99
2022-10-09T04:06:48.845Z,99
2022-10-09T04:07:18.565Z,99
2022-10-09T04:07:49.450Z,99
2022-10-09T04:08:20.281Z,99
2022-10-09T04:08:51.344Z,99
2022-10-09T04:09:22.596Z,99
2022-10-09T04:09:53.475Z,99
2022-10-09T04:10:24.454Z,99
2022-10-09T04:10:57.448Z,99
2022-10-09T04:11:43.498Z,99
2022-10-09T04:11:59.073Z,99
2022-10-09T04:12:30.632Z,99
2022-10-09T04:13:01.647Z,99
2022-10-09T04:13:30.703Z,99
2022-10-09T04:14:01.352Z,99
2022-10-09T04:14:32.509Z,99
2022-10-09T04:15:04.101Z,99
2022-10-09T04:15:35.365Z,99
2022-10-09T04:16:06.039Z,99
2022-10-09T04:16:38.914Z,99
2022-10-09T04:17:08.929Z,99
2022-10-09T04:17:39.411Z,99
2022-10-09T04:18:09.551Z,99
2022-10-09T04:18:40.643Z,99
2022-10-09T04:19:11.541Z,99
2022-10-09T04:19:42.717Z,99
2022-10-09T04:20:13.617Z,99
2022-10-09T04:21:01.533Z,99
2022-10-09T04:21:15.545Z,99
2022-10-09T04:21:46.951Z,99
2022-10-09T04:22:19.776Z,99
2022-10-09T04:22:49.938Z,99
2022-10-09T04:23:20.006Z,99
2022-10-09T04:23:50.456Z,99
2022-10-09T04:24:21.612Z,99
2022-10-09T04:24:52.733Z,99
2022-10-09T04:25:23.682Z,99
2022-10-09T04:25:54.730Z,99
2022-10-09T04:26:26.859Z,99
2022-10-09T04:26:56.159Z,99
2022-10-09T04:27:28.233Z,99
2022-10-09T04:28:00.148Z,99
2022-10-09T04:28:29.449Z,99
2022-10-09T04:29:01.022Z,99
2022-10-09T04:29:31.807Z,99
2022-10-09T04:30:07.091Z,99
2022-10-09T04:30:50.259Z,99
2022-10-09T04:31:04.384Z,99
2022-10-09T04:31:37.148Z,99
2022-10-09T04:32:08.692Z,99
2022-10-09T04:32:39.039Z,99
2022-10-09T04:33:12.748Z,99
2022-10-09T04:33:39.976Z,99
2022-10-09T04:34:10.215Z,99
2022-10-09T04:34:41.872Z,99
2022-10-09T04:35:12.891Z,99
2022-10-09T04:35:49.324Z,99
2022-10-09T04:36:14.375Z,99
2022-10-09T04:36:49.250Z,99
2022-10-09T04:37:49.050Z,99
2022-10-09T04:38:21.074Z,99
2022-10-09T04:39:20.263Z,99
2022-10-09T04:39:51.799Z,99
2022-10-09T04:40:22.834Z,99
2022-10-09T04:40:53.456Z,99
2022-10-09T04:41:24.663Z,99
2022-10-09T04:41:57.432Z,99
2022-10-09T04:42:28.285Z,99
2022-10-09T04:42:58.082Z,99
2022-10-09T04:43:29.073Z,99
2022-10-09T04:43:59.565Z,99
2022-10-09T04:44:30.731Z,99
2022-10-09T04:45:02.484Z,99
2022-10-09T04:45:33.042Z,99
2022-10-09T04:46:04.654Z,99
2022-10-09T04:46:34.862Z,99
2022-10-09T04:47:09.292Z,99
2022-10-09T04:47:36.360Z,99
2022-10-09T04:48:09.225Z,99
2022-10-09T04:48:39.869Z,99
2022-10-09T04:49:09.557Z,99
2022-10-09T04:49:40.788Z,99
2022-10-09T04:50:11.968Z,99
2022-10-09T04:50:42.466Z,99
2022-10-09T04:51:13.786Z,99
2022-10-09T04:51:44.386Z,99
2022-10-09T04:52:16.487Z,99
2022-10-09T04:52:50.707Z,99
2022-10-09T04:53:20.530Z,99
2022-10-09T04:53:50.084Z,99
2022-10-09T04:54:19.943Z,99
2022-10-09T04:54:50.818Z,99
2022-10-09T04:55:22.714Z,99
2022-10-09T04:55:52.809Z,99
2022-10-09T04:56:23.679Z,99
2022-10-09T04:56:54.802Z,99
2022-10-09T04:57:28.217Z,99
2022-10-09T04:57:58.398Z,99
2022-10-09T04:58:28.230Z,99
2022-10-09T04:58:58.611Z,99
2022-10-09T04:59:29.751Z,99
2022-10-09T05:00:01.091Z,99
2022-10-09T05:00:32.122Z,99
2022-10-09T05:01:02.520Z,99
2022-10-09T05:01:38.110Z,99
2022-10-09T05:02:07.665Z,99
2022-10-09T05:02:36.485Z,99
2022-10-09T05:03:08.001Z,99
2022-10-09T05:04:02.439Z,99
2022-10-09T05:04:19.106Z,99
2022-10-09T05:04:50.071Z,99
2022-10-09T05:05:35.093Z,99
2022-10-09T05:05:41.576Z,99
2022-10-09T05:06:12.568Z,99
2022-10-09T05:06:43.875Z,99
2022-10-09T05:07:14.552Z,99
2022-10-09T05:08:01.912Z,99
2022-10-09T05:09:44.970Z,99
2022-10-09T05:09:49.834Z,99
2022-10-09T05:10:20.511Z,99
2022-10-09T05:10:51.510Z,99
2022-10-09T05:11:24.997Z,99
2022-10-09T05:11:53.759Z,99
2022-10-09T05:12:32.008Z,99
2022-10-09T05:13:44.363Z,99
2022-10-09T05:13:58.692Z,99
2022-10-09T05:14:51.368Z,99
2022-10-09T05:15:01.433Z,99
2022-10-09T05:15:36.428Z,99
2022-10-09T05:16:02.958Z,99
2022-10-09T05:16:40.696Z,99
2022-10-09T05:17:22.750Z,99
2022-10-09T05:17:39.601Z,99
2022-10-09T05:18:21.206Z,99
2022-10-09T05:18:44.130Z,99
2022-10-09T05:19:08.185Z,99
2022-10-09T05:20:02.312Z,99
2022-10-09T05:20:28.750Z,99
2022-10-09T05:20:45.243Z,99
2022-10-09T05:21:11.480Z,99
2022-10-09T05:21:43.030Z,99
2022-10-09T05:22:13.634Z,99
2022-10-09T05:22:54.125Z,99
2022-10-09T05:23:28.079Z,99
2022-10-09T05:23:48.042Z,99
2022-10-09T05:24:40.241Z,99
2022-10-09T05:24:49.866Z,99
2022-10-09T05:25:19.440Z,99
2022-10-09T05:25:50.423Z,99
2022-10-09T05:26:34.053Z,99
2022-10-09T05:26:52.425Z,99
2022-10-09T05:27:23.978Z,99
2022-10-09T05:28:17.682Z,99
2022-10-09T05:28:25.894Z,99
2022-10-09T05:28:58.811Z,99
2022-10-09T05:29:29.231Z,99
2022-10-09T05:29:58.961Z,99
2022-10-09T05:39:05.262Z,99
2022-10-09T05:39:29.773Z,99
2022-10-09T05:40:08.586Z,99
2022-10-09T05:40:49.613Z,99
2022-10-09T05:41:20.822Z,99
2022-10-09T05:41:51.467Z,99
2022-10-09T05:42:23.102Z,99
2022-10-09T05:42:53.739Z,99
2022-10-09T05:43:27.316Z,99
2022-10-09T05:43:56.865Z,99
2022-10-09T05:44:27.822Z,99
2022-10-09T05:44:58.393Z,99
2022-10-09T05:45:37.899Z,99
2022-10-09T05:46:00.024Z,99
2022-10-09T05:46:30.994Z,99
2022-10-09T05:47:01.744Z,99
2022-10-09T05:47:32.565Z,99
2022-10-09T05:48:36.792Z,99
2022-10-09T05:49:07.609Z,99
2022-10-09T05:49:37.520Z,99
2022-10-09T05:50:08.982Z,99
2022-10-09T05:50:42.181Z,99
2022-10-09T05:51:12.724Z,99
2022-10-09T05:51:41.124Z,99
2022-10-09T05:52:43.319Z,99
2022-10-09T05:53:46.574Z,99
2022-10-09T05:54:17.108Z,99
2022-10-09T05:54:47.453Z,99
2022-10-09T05:55:18.349Z,99
2022-10-09T05:55:48.885Z,99
2022-10-09T05:56:25.325Z,99
2022-10-09T05:56:50.989Z,99
2022-10-09T05:57:21.995Z,99
2022-10-09T05:57:53.084Z,99
2022-10-09T05:58:25.945Z,99
2022-10-09T05:58:56.558Z,99
2022-10-09T05:59:27.382Z,99
2022-10-09T05:59:57.220Z,99
2022-10-09T06:01:53.883Z,99
2022-10-09T06:02:00.916Z,99
2022-10-09T06:02:50.642Z,99
2022-10-09T06:03:16.413Z,99
2022-10-09T06:03:33.813Z,99
2022-10-09T06:04:21.892Z,99
2022-10-09T06:04:37.619Z,99
2022-10-09T06:05:08.829Z,99
2022-10-09T06:06:15.459Z,99
2022-10-09T06:06:41.081Z,99
2022-10-09T06:07:33.821Z,99
2022-10-09T06:07:46.930Z,99
2022-10-09T06:08:13.414Z,99
2022-10-09T06:08:43.782Z,99
2022-10-09T06:09:14.813Z,99
2022-10-09T06:09:45.723Z,99
2022-10-09T06:10:17.341Z,99
2022-10-09T06:10:47.964Z,99
2022-10-09T06:11:18.749Z,99
2022-10-09T06:12:42.978Z,99
2022-10-09T06:12:56.891Z,99
2022-10-09T06:13:23.220Z,99
2022-10-09T06:13:53.864Z,99
2022-10-09T06:14:34.075Z,99
2022-10-09T06:15:00.999Z,99
2022-10-09T06:15:27.145Z,99
2022-10-09T06:15:57.742Z,99
2022-10-09T06:16:30.094Z,99
2022-10-09T06:17:01.017Z,99
2022-10-09T06:17:31.591Z,99
2022-10-09T06:18:03.642Z,99
2022-10-09T06:18:33.394Z,99
2022-10-09T06:19:09.702Z,99
2022-10-09T06:19:34.711Z,99
2022-10-09T06:20:06.531Z,99
2022-10-09T06:20:46.701Z,99
2022-10-09T06:21:07.786Z,99
2022-10-09T06:21:43.075Z,99
2022-10-09T06:22:26.056Z,99
2022-10-09T06:22:40.958Z,99
2022-10-09T06:23:13.942Z,99
2022-10-09T06:23:43.243Z,99
2022-10-09T06:24:14.113Z,99
2022-10-09T06:24:45.577Z,99
2022-10-09T06:25:34.934Z,99
2022-10-09T06:25:54.209Z,99
2022-10-09T06:26:17.978Z,99
2022-10-09T06:26:48.719Z,99
2022-10-09T06:27:20.269Z,99
2022-10-09T06:27:50.668Z,99
2022-10-09T06:28:25.517Z,99
2022-10-09T06:28:53.591Z,99
2022-10-09T06:29:24.167Z,99
2022-10-09T06:29:54.962Z,99
2022-10-09T06:30:57.487Z,99
2022-10-09T06:31:28.491Z,99
2022-10-09T06:31:58.851Z,99
2022-10-09T06:32:29.975Z,99
2022-10-09T06:33:02.057Z,99
2022-10-09T06:33:33.591Z,99
2022-10-09T06:34:04.015Z,99
2022-10-09T06:34:34.163Z,99
2022-10-09T06:35:05.609Z,99
2022-10-09T06:35:36.237Z,99
2022-10-09T06:36:10.199Z,99
2022-10-09T06:36:38.361Z,99
2022-10-09T06:37:09.257Z,99
2022-10-09T06:37:40.055Z,99
2022-10-09T06:38:12.875Z,99
2022-10-09T06:38:43.481Z,99
2022-10-09T06:39:14.256Z,99
2022-10-09T06:39:44.161Z,99
2022-10-09T06:40:15.504Z,99
2022-10-09T06:41:04.770Z,99
2022-10-09T06:41:17.007Z,99
2022-10-09T06:41:48.210Z,99
2022-10-09T06:42:18.828Z,99
2022-10-09T06:42:50.066Z,99
2022-10-09T06:43:21.143Z,99
2022-10-09T06:43:53.748Z,99
2022-10-09T06:44:24.227Z,99
2022-10-09T06:44:54.485Z,99
2022-10-09T06:45:25.569Z,99
2022-10-09T06:45:55.932Z,99
2022-10-09T06:46:27.300Z,99
2022-10-09T06:46:58.038Z,99
2022-10-09T06:47:59.928Z,99
2022-10-09T06:48:33.989Z,99
2022-10-09T06:49:19.342Z,99
2022-10-09T06:49:34.228Z,99
2022-10-09T06:50:05.229Z,99
2022-10-09T06:50:35.146Z,99
2022-10-09T06:51:06.057Z,99
2022-10-09T06:51:37.212Z,99
2022-10-09T06:52:08.791Z,99
2022-10-09T06:52:38.899Z,99
2022-10-09T06:53:10.067Z,99
2022-10-09T06:53:40.971Z,99
2022-10-09T06:54:14.079Z,99
2022-10-09T06:54:44.026Z,99
2022-10-09T06:55:14.517Z,99
2022-10-09T06:55:45.213Z,99
2022-10-09T06:56:16.294Z,99
2022-10-09T06:56:46.951Z,99
2022-10-09T06:57:18.273Z,99
2022-10-09T06:57:49.129Z,99
2022-10-09T06:58:19.936Z,99
2022-10-09T06:58:51.053Z,99
2022-10-09T06:59:23.262Z,99
2022-10-09T06:59:54.675Z,99
2022-10-09T07:00:24.820Z,99
2022-10-09T07:00:55.586Z,99
2022-10-09T07:01:26.106Z,99
2022-10-09T07:01:57.247Z,99
2022-10-09T07:02:28.282Z,99
2022-10-09T07:02:59.194Z,99
2022-10-09T07:03:29.962Z,99
2022-10-09T07:04:10.750Z,98
2022-10-09T07:04:33.000Z,98
2022-10-09T07:05:04.973Z,97
2022-10-09T07:06:13.006Z,97
2022-10-09T07:06:36.222Z,94
2022-10-09T07:07:07.090Z,93
2022-10-09T07:07:38.321Z,91
2022-10-09T07:08:09.324Z,91
2022-10-09T07:08:47.258Z,86
2022-10-09T07:09:11.302Z,81
2022-10-09T07:09:44.186Z,77
2022-10-09T07:10:14.469Z,76
2022-10-09T07:10:44.577Z,75
2022-10-09T07:11:15.183Z,75
2022-10-09T07:11:45.986Z,73
2022-10-09T07:12:16.916Z,74
2022-10-09T07:12:48.402Z,75
2022-10-09T07:13:18.862Z,76
2022-10-09T07:13:50.236Z,73
2022-10-09T07:14:21.163Z,72
2022-10-09T07:14:55.399Z,72
2022-10-09T07:19:43.024Z,76
2022-10-09T07:20:52.981Z,75
2022-10-09T07:21:05.021Z,72
2022-10-09T07:22:14.175Z,70
2022-10-09T07:22:38.695Z,68
2022-10-09T07:23:08.238Z,69
2022-10-09T07:23:39.221Z,69
2022-10-09T07:24:09.943Z,69
2022-10-09T07:24:41.467Z,69
2022-10-09T07:25:12.342Z,67
2022-10-09T07:25:43.179Z,66
2022-10-09T07:26:14.158Z,67
2022-10-09T07:26:45.565Z,67
2022-10-09T07:27:17.344Z,66
2022-10-09T07:27:47.809Z,66
2022-10-09T07:28:18.383Z,65
2022-10-09T07:28:49.501Z,66
2022-10-09T07:29:20.232Z,67
2022-10-09T07:30:10.410Z,69
2022-10-09T07:30:23.062Z,70
2022-10-09T07:30:54.778Z,71
2022-10-09T07:31:24.227Z,70
2022-10-09T07:31:56.982Z,71
2022-10-09T07:32:27.665Z,71
2022-10-09T07:32:58.503Z,67
2022-10-09T07:33:28.488Z,69
2022-10-09T07:33:59.231Z,70
2022-10-09T07:34:30.459Z,69
2022-10-09T07:35:01.623Z,68
2022-10-09T07:35:57.997Z,68
2022-10-09T07:36:04.095Z,67
2022-10-09T07:36:34.628Z,66
2022-10-09T07:37:06.228Z,66
2022-10-09T07:37:37.581Z,67
2022-10-09T07:38:08.046Z,67
2022-10-09T07:38:38.404Z,66
2022-10-09T07:39:09.294Z,67
2022-10-09T07:39:44.792Z,66
2022-10-09T07:40:11.601Z,67
2022-10-09T07:40:42.275Z,67
2022-10-09T07:41:13.247Z,67
2022-10-09T07:41:44.366Z,66
2022-10-09T07:42:17.309Z,68
2022-10-09T07:42:47.688Z,66
2022-10-09T07:43:18.277Z,66
2022-10-09T07:43:48.999Z,70
2022-10-09T07:44:19.265Z,68
2022-10-09T07:44:50.221Z,69
2022-10-09T07:45:21.561Z,68
2022-10-09T07:45:52.558Z,67
2022-10-09T07:46:23.318Z,67
2022-10-09T07:46:54.384Z,68
2022-10-09T07:47:25.962Z,69
2022-10-09T07:47:57.749Z,66
2022-10-09T07:48:27.873Z,66
2022-10-09T07:48:58.649Z,71
2022-10-09T07:49:29.383Z,69
2022-10-09T07:50:00.469Z,70
2022-10-09T07:50:31.606Z,73
2022-10-09T07:51:02.314Z,72
2022-10-09T07:51:33.972Z,71
2022-10-09T07:52:04.473Z,71
2022-10-09T07:52:37.338Z,70
2022-10-09T07:53:08.019Z,72
2022-10-09T07:54:09.009Z,70
2022-10-09T07:54:39.296Z,71
2022-10-09T07:55:10.609Z,71
2022-10-09T07:55:41.554Z,72